Time;durP1;ratioP1;P1;durP2;ratioP2;P2;SDS_P1;SDS_P2;PMS_P1;PMS_P2;Temp;Humidity;BMP_temperature;BMP_pressure;BME280_temperature;BME280_humidity;BME280_pressure;Samples;Min_cycle;Max_cycle;Signal;HPM_P1;HPM_P2
2023/12/04 00:00:42;;;;;;;29.17;11.97;;;;;;;;;;6201478;23;20213;-90
2023/12/04 00:03:49;;;;;;;28.53;11.40;;;;;;;;;;6204066;23;20197;-89
2023/12/04 00:06:56;;;;;;;30.97;12.23;;;;;;;;;;6203463;23;20174;-91
2023/12/04 00:10:01;;;;;;;30.43;12.13;;;;;;;;;;6203289;23;20152;-90
2023/12/04 00:13:09;;;;;;;31.80;12.77;;;;;;;;;;6200734;23;20168;-90
2023/12/04 00:16:14;;;;;;;31.77;13.07;;;;;;;;;;6201148;23;20499;-91
2023/12/04 00:19:22;;;;;;;29.63;11.60;;;;;;;;;;6200600;23;20223;-90
2023/12/04 00:22:28;;;;;;;29.43;11.13;;;;;;;;;;6200873;23;20168;-90
2023/12/04 00:25:34;;;;;;;25.20;10.33;;;;;;;;;;6201394;23;20198;-92
2023/12/04 00:28:39;;;;;;;25.77;10.90;;;;;;;;;;6201332;23;20216;-91
2023/12/04 00:31:44;;;;;;;33.10;11.87;;;;;;;;;;6200049;23;20169;-90
2023/12/04 00:34:51;;;;;;;25.43;10.57;;;;;;;;;;6201184;23;20180;-90
2023/12/04 00:37:56;;;;;;;31.23;11.00;;;;;;;;;;6200359;23;20164;-91
2023/12/04 00:41:01;;;;;;;32.67;11.63;;;;;;;;;;6202037;23;20180;-91
2023/12/04 00:44:07;;;;;;;27.30;10.37;;;;;;;;;;6202326;23;20167;-89
2023/12/04 00:47:12;;;;;;;27.43;10.80;;;;;;;;;;6201654;23;20176;-92
2023/12/04 00:50:20;;;;;;;24.63;10.13;;;;;;;;;;6200867;23;20159;-90
2023/12/04 00:53:25;;;;;;;24.47;10.10;;;;;;;;;;6199421;23;20230;-91
2023/12/04 00:56:31;;;;;;;27.03;11.23;;;;;;;;;;6198973;23;20151;-89
2023/12/04 00:59:35;;;;;;;28.77;11.93;;;;;;;;;;6201025;23;20597;-90
2023/12/04 01:02:42;;;;;;;28.80;11.93;;;;;;;;;;6199894;23;20623;-89
2023/12/04 01:05:48;;;;;;;26.67;10.90;;;;;;;;;;6200314;23;20195;-92
2023/12/04 01:08:54;;;;;;;25.77;10.73;;;;;;;;;;6197666;23;20256;-92
2023/12/04 01:11:59;;;;;;;28.83;10.73;;;;;;;;;;6198240;23;20164;-92
2023/12/04 01:15:04;;;;;;;27.70;10.93;;;;;;;;;;6198581;23;20288;-91
2023/12/04 01:18:09;;;;;;;26.33;10.03;;;;;;;;;;6200047;23;20796;-90
2023/12/04 01:21:18;;;;;;;30.70;11.00;;;;;;;;;;6199536;23;20232;-89
2023/12/04 01:24:23;;;;;;;25.17;10.87;;;;;;;;;;6199781;23;20163;-90
2023/12/04 01:27:28;;;;;;;28.57;10.53;;;;;;;;;;6199463;23;20221;-90
2023/12/04 01:30:34;;;;;;;29.30;10.93;;;;;;;;;;6198500;23;20167;-91
2023/12/04 01:33:39;;;;;;;28.30;10.83;;;;;;;;;;6197838;23;20326;-90
2023/12/04 01:36:46;;;;;;;24.97;10.57;;;;;;;;;;6199649;23;20168;-91
2023/12/04 01:39:51;;;;;;;30.60;10.77;;;;;;;;;;6199800;23;20168;-90
2023/12/04 01:42:55;;;;;;;28.57;10.37;;;;;;;;;;6197603;23;20168;-91
2023/12/04 01:46:02;;;;;;;26.63;10.90;;;;;;;;;;6199087;23;20183;-91
2023/12/04 01:49:07;;;;;;;27.70;10.97;;;;;;;;;;6199302;23;20239;-90
2023/12/04 01:52:13;;;;;;;26.77;10.47;;;;;;;;;;6198993;23;20215;-91
2023/12/04 01:55:19;;;;;;;27.50;10.87;;;;;;;;;;6199247;23;20171;-90
2023/12/04 01:58:24;;;;;;;25.23;9.97;;;;;;;;;;6199149;23;20184;-90
2023/12/04 02:01:30;;;;;;;24.77;10.30;;;;;;;;;;6200503;23;20229;-92
2023/12/04 02:04:35;;;;;;;33.97;10.93;;;;;;;;;;6200289;23;20168;-88
2023/12/04 02:07:43;;;;;;;23.93;10.90;;;;;;;;;;6199416;23;20223;-90
2023/12/04 02:10:48;;;;;;;24.10;9.13;;;;;;;;;;6197461;23;20212;-90
2023/12/04 02:13:53;;;;;;;28.63;10.77;;;;;;;;;;6198049;23;20156;-91
2023/12/04 02:16:59;;;;;;;22.57;10.63;;;;;;;;;;6197271;23;20168;-90
2023/12/04 02:20:05;;;;;;;28.23;10.53;;;;;;;;;;6199915;23;20160;-92
2023/12/04 02:23:11;;;;;;;26.27;10.63;;;;;;;;;;6196748;23;20244;-89
2023/12/04 02:26:18;;;;;;;24.93;10.63;;;;;;;;;;6198770;23;20262;-90
2023/12/04 02:29:25;;;;;;;25.00;10.40;;;;;;;;;;6199041;23;20374;-90
2023/12/04 02:32:30;;;;;;;29.37;11.53;;;;;;;;;;6201290;23;20156;-90
2023/12/04 02:35:37;;;;;;;25.77;10.23;;;;;;;;;;6200636;23;20175;-91
2023/12/04 02:38:43;;;;;;;29.70;10.77;;;;;;;;;;6199168;23;20236;-90
2023/12/04 02:41:51;;;;;;;24.83;10.37;;;;;;;;;;6199670;23;20156;-90
2023/12/04 02:44:56;;;;;;;30.03;11.87;;;;;;;;;;6199528;23;20244;-89
2023/12/04 02:48:01;;;;;;;26.87;10.70;;;;;;;;;;6199095;23;20191;-92
2023/12/04 02:51:07;;;;;;;28.37;10.47;;;;;;;;;;6199853;23;20171;-88
2023/12/04 02:54:12;;;;;;;30.90;10.93;;;;;;;;;;6199977;23;20616;-90
2023/12/04 02:57:20;;;;;;;27.17;10.43;;;;;;;;;;6199940;23;20176;-90
2023/12/04 03:00:25;;;;;;;28.47;11.57;;;;;;;;;;6200681;23;20256;-90
2023/12/04 03:03:30;;;;;;;26.73;10.47;;;;;;;;;;6200104;23;20164;-90
2023/12/04 03:06:35;;;;;;;28.60;10.37;;;;;;;;;;6199659;23;20200;-90
2023/12/04 03:09:40;;;;;;;24.53;10.47;;;;;;;;;;6200606;23;20152;-90
2023/12/04 03:12:46;;;;;;;26.40;10.80;;;;;;;;;;6199493;23;20176;-91
2023/12/04 03:15:51;;;;;;;29.10;11.07;;;;;;;;;;6200455;23;20593;-90
2023/12/04 03:18:56;;;;;;;32.93;12.23;;;;;;;;;;6199431;23;20618;-90
2023/12/04 03:22:01;;;;;;;28.47;10.63;;;;;;;;;;6198606;23;20160;-91
2023/12/04 03:25:07;;;;;;;29.20;10.33;;;;;;;;;;6198411;23;20211;-90
2023/12/04 03:28:15;;;;;;;25.73;9.43;;;;;;;;;;6199018;23;20211;-91
2023/12/04 03:31:20;;;;;;;27.23;10.20;;;;;;;;;;6202295;23;20168;-91
2023/12/04 03:34:26;;;;;;;26.10;9.57;;;;;;;;;;6197731;23;20168;-90
2023/12/04 03:37:31;;;;;;;23.47;9.37;;;;;;;;;;6198911;23;20221;-90
2023/12/04 03:40:36;;;;;;;27.73;9.93;;;;;;;;;;6197660;23;20170;-91
2023/12/04 03:43:42;;;;;;;29.63;10.63;;;;;;;;;;6195009;23;20167;-92
2023/12/04 03:46:47;;;;;;;24.33;10.10;;;;;;;;;;6196393;23;20182;-91
2023/12/04 03:49:53;;;;;;;32.03;11.10;;;;;;;;;;6197195;23;20172;-91
2023/12/04 03:52:58;;;;;;;31.13;10.57;;;;;;;;;;6196038;23;20167;-89
2023/12/04 03:56:04;;;;;;;28.47;11.47;;;;;;;;;;6196722;23;20167;-89
2023/12/04 03:59:11;;;;;;;25.97;10.03;;;;;;;;;;6195777;23;20167;-90
2023/12/04 04:02:16;;;;;;;21.83;9.47;;;;;;;;;;6196308;23;20176;-90
2023/12/04 04:05:21;;;;;;;25.07;9.73;;;;;;;;;;6196705;23;20198;-90
2023/12/04 04:08:26;;;;;;;30.60;10.93;;;;;;;;;;6195682;23;20168;-91
2023/12/04 04:11:31;;;;;;;25.23;10.57;;;;;;;;;;6197657;23;20175;-90
2023/12/04 04:14:38;;;;;;;26.70;10.30;;;;;;;;;;6197609;23;20184;-91
2023/12/04 04:17:44;;;;;;;25.73;10.50;;;;;;;;;;6198894;23;20172;-92
2023/12/04 04:20:49;;;;;;;27.13;9.70;;;;;;;;;;6197849;23;20495;-91
2023/12/04 04:23:54;;;;;;;23.47;9.37;;;;;;;;;;6197370;23;20217;-90
2023/12/04 04:26:59;;;;;;;26.73;9.60;;;;;;;;;;6197859;23;20176;-90
2023/12/04 04:30:08;;;;;;;25.03;9.87;;;;;;;;;;6197481;23;20168;-91
2023/12/04 04:33:13;;;;;;;29.73;10.90;;;;;;;;;;6198957;23;20167;-89
2023/12/04 04:36:18;;;;;;;31.20;11.27;;;;;;;;;;6196792;23;20199;-91
2023/12/04 04:39:24;;;;;;;25.23;10.70;;;;;;;;;;6197228;23;20176;-90
2023/12/04 04:42:29;;;;;;;27.73;9.47;;;;;;;;;;6197968;23;20151;-90
2023/12/04 04:45:35;;;;;;;25.50;10.33;;;;;;;;;;6196093;23;20167;-91
2023/12/04 04:48:41;;;;;;;28.17;11.00;;;;;;;;;;6194662;23;20239;-90
2023/12/04 04:51:46;;;;;;;25.67;9.80;;;;;;;;;;6197044;23;20179;-91
2023/12/04 04:54:51;;;;;;;23.90;9.27;;;;;;;;;;6197409;23;20164;-91
2023/12/04 04:57:57;;;;;;;26.13;10.47;;;;;;;;;;6195397;23;20171;-90
2023/12/04 05:01:04;;;;;;;29.27;10.67;;;;;;;;;;6196499;23;20191;-90
2023/12/04 05:04:09;;;;;;;27.67;10.40;;;;;;;;;;6198102;23;20159;-90
2023/12/04 05:07:14;;;;;;;26.07;10.30;;;;;;;;;;6200049;23;20192;-89
2023/12/04 05:10:19;;;;;;;31.10;10.73;;;;;;;;;;6199647;23;20167;-90
2023/12/04 05:13:24;;;;;;;27.90;10.13;;;;;;;;;;6199830;23;20170;-90
2023/12/04 05:16:31;;;;;;;26.53;10.80;;;;;;;;;;6197831;23;20284;-90
2023/12/04 05:19:36;;;;;;;29.50;11.10;;;;;;;;;;6198850;23;20190;-92
2023/12/04 05:22:41;;;;;;;30.07;10.50;;;;;;;;;;6199488;23;20171;-89
2023/12/04 05:25:46;;;;;;;28.17;10.37;;;;;;;;;;6200653;23;20176;-91
2023/12/04 05:28:51;;;;;;;27.67;10.23;;;;;;;;;;6199354;23;20603;-90
2023/12/04 05:31:58;;;;;;;27.97;10.87;;;;;;;;;;6198396;23;20179;-91
2023/12/04 05:35:03;;;;;;;26.13;10.57;;;;;;;;;;6198985;23;20156;-91
2023/12/04 05:38:08;;;;;;;223.90;49.37;;;;;;;;;;6197818;23;20170;-91
2023/12/04 05:41:14;;;;;;;48.80;15.73;;;;;;;;;;6198337;23;20188;-89
2023/12/04 05:44:20;;;;;;;28.30;10.77;;;;;;;;;;6200855;23;20169;-90
2023/12/04 05:47:27;;;;;;;29.10;11.53;;;;;;;;;;6199987;23;20244;-91
2023/12/04 05:50:33;;;;;;;26.23;10.47;;;;;;;;;;6200239;23;20224;-90
2023/12/04 05:53:38;;;;;;;53.87;16.97;;;;;;;;;;6201086;23;20191;-90
2023/12/04 05:56:43;;;;;;;32.53;11.90;;;;;;;;;;6201089;23;20191;-89
2023/12/04 05:59:48;;;;;;;32.27;11.57;;;;;;;;;;6200416;23;20212;-90
2023/12/04 06:02:55;;;;;;;29.97;11.10;;;;;;;;;;6199921;23;20167;-89
2023/12/04 06:06:00;;;;;;;26.47;9.67;;;;;;;;;;6200749;23;20257;-90
2023/12/04 06:09:06;;;;;;;26.77;10.40;;;;;;;;;;6199067;23;20163;-90
2023/12/04 06:12:12;;;;;;;26.33;10.80;;;;;;;;;;6199988;23;20619;-90
2023/12/04 06:15:17;;;;;;;25.97;10.27;;;;;;;;;;6203550;23;20215;-90
2023/12/04 06:18:29;;;;;;;26.03;9.50;;;;;;;;;;6202574;23;20160;-90
2023/12/04 06:21:34;;;;;;;26.33;11.63;;;;;;;;;;6203716;23;20163;-91
2023/12/04 06:24:40;;;;;;;25.77;10.67;;;;;;;;;;6205163;23;20173;-92
2023/12/04 06:27:47;;;;;;;37.37;12.47;;;;;;;;;;6205799;23;20192;-90
2023/12/04 06:30:56;;;;;;;30.60;11.37;;;;;;;;;;6203781;23;20223;-90
2023/12/04 06:34:18;;;;;;;35.67;13.10;;;;;;;;;;6206548;23;20184;-90
2023/12/04 06:37:40;;;;;;;36.97;13.80;;;;;;;;;;6206936;23;20170;-90
2023/12/04 06:40:47;;;;;;;65.47;17.97;;;;;;;;;;6203409;23;20212;-90
2023/12/04 06:43:53;;;;;;;31.07;11.47;;;;;;;;;;6202760;23;20172;-90
2023/12/04 06:47:02;;;;;;;28.93;11.30;;;;;;;;;;6199791;23;20176;-87
2023/12/04 06:50:07;;;;;;;35.47;13.03;;;;;;;;;;6202230;23;20166;-90
2023/12/04 06:53:13;;;;;;;25.73;10.23;;;;;;;;;;6201785;23;20178;-89
2023/12/04 23:02:51;;;;;;;45.77;16.70;;;;;;;;;;6178946;23;20216;-89
2023/12/04 23:05:58;;;;;;;42.40;17.00;;;;;;;;;;6168726;23;20617;-91
2023/12/04 23:09:04;;;;;;;45.97;16.50;;;;;;;;;;6172291;23;20191;-90
2023/12/04 23:12:10;;;;;;;50.93;17.70;;;;;;;;;;6173288;23;20192;-91
2023/12/04 23:15:15;;;;;;;54.67;18.47;;;;;;;;;;6171907;23;20169;-90
2023/12/04 23:18:22;;;;;;;45.33;17.23;;;;;;;;;;6173440;23;20197;-89
2023/12/04 23:21:27;;;;;;;48.70;17.17;;;;;;;;;;6170416;23;20163;-91
2023/12/04 23:24:32;;;;;;;53.20;18.60;;;;;;;;;;6170205;23;20168;-90
2023/12/04 23:27:37;;;;;;;46.37;17.33;;;;;;;;;;6170899;23;20217;-91
2023/12/04 23:30:43;;;;;;;40.27;15.80;;;;;;;;;;6170200;23;20188;-90
2023/12/04 23:33:50;;;;;;;47.67;18.27;;;;;;;;;;6171470;23;20624;-90
2023/12/04 23:36:55;;;;;;;49.43;18.47;;;;;;;;;;6171311;23;20165;-90
2023/12/04 23:40:00;;;;;;;51.67;18.97;;;;;;;;;;6171412;23;20168;-90
2023/12/04 23:43:06;;;;;;;44.23;16.83;;;;;;;;;;6173398;23;20160;-90
2023/12/04 23:46:11;;;;;;;42.13;16.43;;;;;;;;;;6171953;23;20511;-89
2023/12/04 23:49:17;;;;;;;46.13;16.63;;;;;;;;;;6172054;23;20196;-90
2023/12/04 23:52:22;;;;;;;42.13;16.43;;;;;;;;;;6172580;23;20169;-91
2023/12/04 23:55:28;;;;;;;41.43;16.40;;;;;;;;;;6171436;23;20164;-91
2023/12/04 23:58:33;;;;;;;41.33;15.67;;;;;;;;;;6171223;23;20175;-91
